<?xml version="1.0" encoding="UTF-8" standalone="no" ?>
<gpx xmlns="http://www.topografix.com/GPX/1/1" xmlns:xsi="http://www.w3.org/2001/XMLSchema-instance" xsi:schemaLocation="http://www.topografix.com/GPX/1/1 http://www.topografix.com/GPX/1/1/gpx.xsd" version="1.1" creator="VisuGPX - https://www.visugpx.com">
  <metadata>
    <name>Rando LN</name>
  </metadata>
  <trk>
    <name><![CDATA[Sireuil]]></name>
    <extensions>
      <line xmlns="http://www.topografix.com/GPX/gpx_style/0/2">
        <color>ff0004</color>
        <width>4</width>
      </line>
    </extensions>
    <trkseg>
      <trkpt lat="44.91838" lon="0.92751">
        <ele>65.085</ele>
        <time>2017-03-29T17:27:32Z</time>
      </trkpt>
      <trkpt lat="44.91838" lon="0.92751">
        <ele>65.085</ele>
        <time>2017-03-29T17:27:32Z</time>
      </trkpt>
      <trkpt lat="44.91838" lon="0.92751">
        <ele>65.085</ele>
        <time>2017-03-29T17:27:32Z</time>
      </trkpt>
      <trkpt lat="44.91838" lon="0.92751">
        <ele>65.085</ele>
        <time>2017-03-29T17:27:32Z</time>
      </trkpt>
      <trkpt lat="44.91838" lon="0.92751">
        <ele>65.085</ele>
        <time>2017-03-29T17:27:32Z</time>
      </trkpt>
      <trkpt lat="44.91838" lon="0.92751">
        <ele>65.085</ele>
        <time>2017-03-29T17:27:32Z</time>
      </trkpt>
      <trkpt lat="44.91838" lon="0.92751">
        <ele>65.085</ele>
        <time>2017-03-29T17:27:32Z</time>
      </trkpt>
      <trkpt lat="44.91838" lon="0.92751">
        <ele>65.085</ele>
        <time>2017-03-29T17:27:32Z</time>
      </trkpt>
      <trkpt lat="44.91811" lon="0.9279">
        <ele>64.889</ele>
        <time>2017-03-29T17:27:52Z</time>
      </trkpt>
      <trkpt lat="44.9182" lon="0.92861">
        <ele>73.117</ele>
        <time>2017-03-29T17:28:12Z</time>
      </trkpt>
      <trkpt lat="44.91829" lon="0.92898">
        <ele>78.508</ele>
        <time>2017-03-29T17:28:32Z</time>
      </trkpt>
      <trkpt lat="44.9181" lon="0.92919">
        <ele>78.794</ele>
        <time>2017-03-29T17:28:52Z</time>
      </trkpt>
      <trkpt lat="44.9177" lon="0.93065">
        <ele>89.349</ele>
        <time>2017-03-29T17:29:12Z</time>
      </trkpt>
      <trkpt lat="44.91767" lon="0.93109">
        <ele>92.769</ele>
        <time>2017-03-29T17:29:32Z</time>
      </trkpt>
      <trkpt lat="44.91772" lon="0.93163">
        <ele>98.421</ele>
        <time>2017-03-29T17:29:52Z</time>
      </trkpt>
      <trkpt lat="44.9174" lon="0.93237">
        <ele>100.883</ele>
        <time>2017-03-29T17:30:12Z</time>
      </trkpt>
      <trkpt lat="44.91831" lon="0.93522">
        <ele>136.334</ele>
        <time>2017-03-29T17:30:32Z</time>
      </trkpt>
      <trkpt lat="44.91853" lon="0.93598">
        <ele>143.52</ele>
        <time>2017-03-29T17:30:52Z</time>
      </trkpt>
      <trkpt lat="44.91878" lon="0.93662">
        <ele>144.792</ele>
        <time>2017-03-29T17:31:12Z</time>
      </trkpt>
      <trkpt lat="44.91902" lon="0.93768">
        <ele>157.199</ele>
        <time>2017-03-29T17:31:32Z</time>
      </trkpt>
      <trkpt lat="44.91959" lon="0.93923">
        <ele>169.907</ele>
        <time>2017-03-29T17:31:52Z</time>
      </trkpt>
      <trkpt lat="44.91982" lon="0.9396">
        <ele>170.827</ele>
        <time>2017-03-29T17:32:12Z</time>
      </trkpt>
      <trkpt lat="44.92002" lon="0.94023">
        <ele>174.208</ele>
        <time>2017-03-29T17:32:32Z</time>
      </trkpt>
      <trkpt lat="44.92037" lon="0.9406">
        <ele>175.365</ele>
        <time>2017-03-29T17:32:52Z</time>
      </trkpt>
      <trkpt lat="44.92082" lon="0.94086">
        <ele>181.28</ele>
        <time>2017-03-29T17:33:12Z</time>
      </trkpt>
      <trkpt lat="44.92174" lon="0.94127">
        <ele>182.72</ele>
        <time>2017-03-29T17:33:32Z</time>
      </trkpt>
      <trkpt lat="44.92246" lon="0.94179">
        <ele>182.832</ele>
        <time>2017-03-29T17:33:52Z</time>
      </trkpt>
      <trkpt lat="44.92213" lon="0.9427">
        <ele>173.764</ele>
        <time>2017-03-29T17:34:12Z</time>
      </trkpt>
      <trkpt lat="44.92189" lon="0.94402">
        <ele>172.175</ele>
        <time>2017-03-29T17:34:32Z</time>
      </trkpt>
      <trkpt lat="44.92251" lon="0.9447">
        <ele>177.171</ele>
        <time>2017-03-29T17:34:52Z</time>
      </trkpt>
      <trkpt lat="44.92301" lon="0.94555">
        <ele>181.823</ele>
        <time>2017-03-29T17:35:12Z</time>
      </trkpt>
      <trkpt lat="44.92323" lon="0.94538">
        <ele>183.391</ele>
        <time>2017-03-29T17:35:32Z</time>
      </trkpt>
      <trkpt lat="44.92391" lon="0.9455">
        <ele>185.781</ele>
        <time>2017-03-29T17:35:52Z</time>
      </trkpt>
      <trkpt lat="44.92484" lon="0.94555">
        <ele>186.819</ele>
        <time>2017-03-29T17:36:12Z</time>
      </trkpt>
      <trkpt lat="44.92536" lon="0.94571">
        <ele>188.308</ele>
        <time>2017-03-29T17:36:32Z</time>
      </trkpt>
      <trkpt lat="44.92532" lon="0.94613">
        <ele>188.835</ele>
        <time>2017-03-29T17:36:52Z</time>
      </trkpt>
      <trkpt lat="44.92559" lon="0.94761">
        <ele>186.68</ele>
        <time>2017-03-29T17:37:12Z</time>
      </trkpt>
      <trkpt lat="44.92587" lon="0.94937">
        <ele>184.59</ele>
        <time>2017-03-29T17:37:32Z</time>
      </trkpt>
      <trkpt lat="44.92512" lon="0.95197">
        <ele>171.822</ele>
        <time>2017-03-29T17:37:52Z</time>
      </trkpt>
      <trkpt lat="44.9254" lon="0.95368">
        <ele>173.374</ele>
        <time>2017-03-29T17:38:12Z</time>
      </trkpt>
      <trkpt lat="44.9255" lon="0.95529">
        <ele>169.585</ele>
        <time>2017-03-29T17:38:32Z</time>
      </trkpt>
      <trkpt lat="44.92682" lon="0.95772">
        <ele>152.921</ele>
        <time>2017-03-29T17:38:52Z</time>
      </trkpt>
      <trkpt lat="44.92709" lon="0.95882">
        <ele>149.513</ele>
        <time>2017-03-29T17:39:12Z</time>
      </trkpt>
      <trkpt lat="44.92786" lon="0.95875">
        <ele>143.433</ele>
        <time>2017-03-29T17:39:32Z</time>
      </trkpt>
      <trkpt lat="44.9281" lon="0.95916">
        <ele>140.123</ele>
        <time>2017-03-29T17:39:52Z</time>
      </trkpt>
      <trkpt lat="44.92852" lon="0.96032">
        <ele>133.515</ele>
        <time>2017-03-29T17:40:12Z</time>
      </trkpt>
      <trkpt lat="44.92861" lon="0.96086">
        <ele>131.108</ele>
        <time>2017-03-29T17:40:32Z</time>
      </trkpt>
      <trkpt lat="44.92892" lon="0.96131">
        <ele>134.299</ele>
        <time>2020-11-25T09:00:40Z</time>
      </trkpt>
      <trkpt lat="44.92899" lon="0.96317">
        <ele>144.544</ele>
        <time>2020-11-25T09:01:00Z</time>
      </trkpt>
      <trkpt lat="44.92814" lon="0.9634">
        <ele>146.994</ele>
        <time>2017-03-29T17:43:12Z</time>
      </trkpt>
      <trkpt lat="44.92741" lon="0.96415">
        <ele>147.766</ele>
        <time>2017-03-29T17:43:32Z</time>
      </trkpt>
      <trkpt lat="44.92667" lon="0.96502">
        <ele>147.198</ele>
        <time>2017-03-29T17:43:52Z</time>
      </trkpt>
      <trkpt lat="44.92622" lon="0.9658">
        <ele>147.419</ele>
        <time>2017-03-29T17:44:12Z</time>
      </trkpt>
      <trkpt lat="44.92626" lon="0.96659">
        <ele>142.025</ele>
        <time>2017-03-29T17:44:32Z</time>
      </trkpt>
      <trkpt lat="44.92614" lon="0.96679">
        <ele>140.067</ele>
        <time>2017-03-29T17:44:52Z</time>
      </trkpt>
      <trkpt lat="44.92618" lon="0.96701">
        <ele>140.384</ele>
        <time>2020-11-25T09:03:20Z</time>
      </trkpt>
      <trkpt lat="44.92618" lon="0.96746">
        <ele>133.107</ele>
        <time>2020-11-25T09:03:40Z</time>
      </trkpt>
      <trkpt lat="44.92609" lon="0.96781">
        <ele>124.017</ele>
        <time>2020-11-25T09:04:00Z</time>
      </trkpt>
      <trkpt lat="44.92599" lon="0.96799">
        <ele>117.708</ele>
        <time>2020-11-25T09:04:20Z</time>
      </trkpt>
      <trkpt lat="44.92592" lon="0.96839">
        <ele>108.274</ele>
        <time>2020-11-25T09:04:40Z</time>
      </trkpt>
      <trkpt lat="44.92591" lon="0.96875">
        <ele>106.319</ele>
        <time>2017-03-29T17:48:12Z</time>
      </trkpt>
      <trkpt lat="44.92598" lon="0.96942">
        <ele>109.429</ele>
        <time>2017-03-29T17:48:32Z</time>
      </trkpt>
      <trkpt lat="44.92608" lon="0.96966">
        <ele>109.171</ele>
        <time>2017-03-29T17:48:52Z</time>
      </trkpt>
      <trkpt lat="44.92663" lon="0.96995">
        <ele>111.483</ele>
        <time>2017-03-29T17:49:12Z</time>
      </trkpt>
      <trkpt lat="44.92704" lon="0.97">
        <ele>113.334</ele>
        <time>2017-03-29T17:49:32Z</time>
      </trkpt>
      <trkpt lat="44.92755" lon="0.96999">
        <ele>114.17</ele>
        <time>2017-03-29T17:49:52Z</time>
      </trkpt>
      <trkpt lat="44.92813" lon="0.96975">
        <ele>109.672</ele>
        <time>2017-03-29T17:50:12Z</time>
      </trkpt>
      <trkpt lat="44.92846" lon="0.96939">
        <ele>109.525</ele>
        <time>2017-03-29T17:50:32Z</time>
      </trkpt>
      <trkpt lat="44.92888" lon="0.96859">
        <ele>109.626</ele>
        <time>2017-03-29T17:50:52Z</time>
      </trkpt>
      <trkpt lat="44.93036" lon="0.96681">
        <ele>121.508</ele>
        <time>2017-03-29T17:51:12Z</time>
      </trkpt>
      <trkpt lat="44.93062" lon="0.96729">
        <ele>117.808</ele>
        <time>2017-03-29T17:51:32Z</time>
      </trkpt>
      <trkpt lat="44.93029" lon="0.9683">
        <ele>120.658</ele>
        <time>2017-03-29T17:51:52Z</time>
      </trkpt>
      <trkpt lat="44.92968" lon="0.96936">
        <ele>123.053</ele>
        <time>2017-03-29T17:52:12Z</time>
      </trkpt>
      <trkpt lat="44.92962" lon="0.96996">
        <ele>125.873</ele>
        <time>2017-03-29T17:52:32Z</time>
      </trkpt>
      <trkpt lat="44.92971" lon="0.97026">
        <ele>128.835</ele>
        <time>2017-03-29T17:52:52Z</time>
      </trkpt>
      <trkpt lat="44.93024" lon="0.9708">
        <ele>136.567</ele>
        <time>2017-03-29T17:53:12Z</time>
      </trkpt>
      <trkpt lat="44.93008" lon="0.97172">
        <ele>134.958</ele>
        <time>2017-03-29T17:53:32Z</time>
      </trkpt>
      <trkpt lat="44.93013" lon="0.97238">
        <ele>137.344</ele>
        <time>2017-03-29T17:53:52Z</time>
      </trkpt>
      <trkpt lat="44.92991" lon="0.97332">
        <ele>137.766</ele>
        <time>2017-03-29T17:54:12Z</time>
      </trkpt>
      <trkpt lat="44.92961" lon="0.974">
        <ele>140.343</ele>
        <time>2017-03-29T17:54:32Z</time>
      </trkpt>
      <trkpt lat="44.92942" lon="0.97477">
        <ele>140.964</ele>
        <time>2017-03-29T17:54:52Z</time>
      </trkpt>
      <trkpt lat="44.92989" lon="0.9749">
        <ele>139.71</ele>
        <time>2017-03-29T17:55:12Z</time>
      </trkpt>
      <trkpt lat="44.93017" lon="0.97481">
        <ele>137.708</ele>
        <time>2017-03-29T17:55:32Z</time>
      </trkpt>
      <trkpt lat="44.9304" lon="0.97545">
        <ele>131.68</ele>
        <time>2017-03-29T17:55:52Z</time>
      </trkpt>
      <trkpt lat="44.93119" lon="0.97577">
        <ele>123.785</ele>
        <time>2017-03-29T17:56:12Z</time>
      </trkpt>
      <trkpt lat="44.93181" lon="0.97625">
        <ele>123.045</ele>
        <time>2017-03-29T17:56:32Z</time>
      </trkpt>
      <trkpt lat="44.932" lon="0.97596">
        <ele>124.567</ele>
        <time>2017-03-29T17:56:52Z</time>
      </trkpt>
      <trkpt lat="44.93266" lon="0.9766">
        <ele>121.389</ele>
        <time>2017-03-29T17:57:12Z</time>
      </trkpt>
      <trkpt lat="44.93335" lon="0.97715">
        <ele>126.85</ele>
        <time>2017-03-29T17:57:32Z</time>
      </trkpt>
      <trkpt lat="44.93344" lon="0.97734">
        <ele>125.666</ele>
        <time>2017-03-29T17:57:52Z</time>
      </trkpt>
      <trkpt lat="44.93383" lon="0.97782">
        <ele>119.098</ele>
        <time>2017-03-29T17:58:12Z</time>
      </trkpt>
      <trkpt lat="44.93405" lon="0.97852">
        <ele>111.515</ele>
        <time>2017-03-29T17:58:32Z</time>
      </trkpt>
      <trkpt lat="44.93438" lon="0.97859">
        <ele>103.865</ele>
        <time>2017-03-29T17:58:52Z</time>
      </trkpt>
      <trkpt lat="44.93471" lon="0.97844">
        <ele>95.511</ele>
        <time>2017-03-29T17:59:12Z</time>
      </trkpt>
      <trkpt lat="44.93466" lon="0.97859">
        <ele>96.008</ele>
        <time>2017-03-29T17:59:32Z</time>
      </trkpt>
      <trkpt lat="44.93488" lon="0.97851">
        <ele>88.987</ele>
        <time>2017-03-29T17:59:52Z</time>
      </trkpt>
      <trkpt lat="44.93504" lon="0.97827">
        <ele>86.072</ele>
        <time>2017-03-29T18:00:12Z</time>
      </trkpt>
      <trkpt lat="44.93502" lon="0.9786">
        <ele>83.812</ele>
        <time>2017-03-29T18:00:32Z</time>
      </trkpt>
      <trkpt lat="44.9348" lon="0.97904">
        <ele>86.764</ele>
        <time>2017-03-29T18:00:52Z</time>
      </trkpt>
      <trkpt lat="44.93454" lon="0.97937">
        <ele>85.686</ele>
        <time>2017-03-29T18:01:12Z</time>
      </trkpt>
      <trkpt lat="44.9345" lon="0.97964">
        <ele>81.877</ele>
        <time>2017-03-29T18:01:32Z</time>
      </trkpt>
      <trkpt lat="44.93459" lon="0.97986">
        <ele>80.023</ele>
        <time>2017-03-29T18:01:52Z</time>
      </trkpt>
      <trkpt lat="44.93509" lon="0.9801">
        <ele>85.015</ele>
        <time>2017-03-29T18:02:12Z</time>
      </trkpt>
      <trkpt lat="44.93513" lon="0.98043">
        <ele>89.684</ele>
        <time>2017-03-29T18:02:32Z</time>
      </trkpt>
      <trkpt lat="44.93548" lon="0.981">
        <ele>99.207</ele>
        <time>2017-03-29T18:02:52Z</time>
      </trkpt>
      <trkpt lat="44.93577" lon="0.98124">
        <ele>103.517</ele>
        <time>2017-03-29T18:03:12Z</time>
      </trkpt>
      <trkpt lat="44.93621" lon="0.98181">
        <ele>107.608</ele>
        <time>2017-03-29T18:03:32Z</time>
      </trkpt>
      <trkpt lat="44.93621" lon="0.98202">
        <ele>107.144</ele>
        <time>2017-03-29T18:03:52Z</time>
      </trkpt>
      <trkpt lat="44.93596" lon="0.98238">
        <ele>107.919</ele>
        <time>2017-03-29T18:04:12Z</time>
      </trkpt>
      <trkpt lat="44.93587" lon="0.98261">
        <ele>110.989</ele>
        <time>2017-03-29T18:04:32Z</time>
      </trkpt>
      <trkpt lat="44.93583" lon="0.98303">
        <ele>113.831</ele>
        <time>2017-03-29T18:04:52Z</time>
      </trkpt>
      <trkpt lat="44.93577" lon="0.98342">
        <ele>116.843</ele>
        <time>2017-03-29T18:05:12Z</time>
      </trkpt>
      <trkpt lat="44.93578" lon="0.98374">
        <ele>119.444</ele>
        <time>2017-03-29T18:05:32Z</time>
      </trkpt>
      <trkpt lat="44.93568" lon="0.98478">
        <ele>128.44</ele>
        <time>2017-03-29T18:05:52Z</time>
      </trkpt>
      <trkpt lat="44.93586" lon="0.98571">
        <ele>126.962</ele>
        <time>2017-03-29T18:06:12Z</time>
      </trkpt>
      <trkpt lat="44.936" lon="0.98594">
        <ele>126.297</ele>
        <time>2017-03-29T18:06:32Z</time>
      </trkpt>
      <trkpt lat="44.93713" lon="0.98629">
        <ele>131.523</ele>
        <time>2017-03-29T18:06:52Z</time>
      </trkpt>
      <trkpt lat="44.93729" lon="0.98644">
        <ele>133.225</ele>
        <time>2017-03-29T18:07:12Z</time>
      </trkpt>
      <trkpt lat="44.93726" lon="0.98814">
        <ele>153.708</ele>
        <time>2017-03-29T18:07:32Z</time>
      </trkpt>
      <trkpt lat="44.93717" lon="0.9883">
        <ele>154.215</ele>
        <time>2017-03-29T18:07:52Z</time>
      </trkpt>
      <trkpt lat="44.9372" lon="0.98859">
        <ele>155.04</ele>
        <time>2017-03-29T18:08:12Z</time>
      </trkpt>
      <trkpt lat="44.93809" lon="0.98829">
        <ele>157.32</ele>
        <time>2017-03-29T18:08:32Z</time>
      </trkpt>
      <trkpt lat="44.93875" lon="0.98878">
        <ele>158.552</ele>
        <time>2017-03-29T18:08:52Z</time>
      </trkpt>
      <trkpt lat="44.93902" lon="0.9889">
        <ele>161.084</ele>
        <time>2017-03-29T18:09:12Z</time>
      </trkpt>
      <trkpt lat="44.93888" lon="0.98953">
        <ele>162.655</ele>
        <time>2017-03-29T18:09:32Z</time>
      </trkpt>
      <trkpt lat="44.93887" lon="0.98991">
        <ele>161.191</ele>
        <time>2017-03-29T18:09:52Z</time>
      </trkpt>
      <trkpt lat="44.93878" lon="0.99015">
        <ele>158.223</ele>
        <time>2017-03-29T18:10:12Z</time>
      </trkpt>
      <trkpt lat="44.93912" lon="0.99121">
        <ele>148.522</ele>
        <time>2017-03-29T18:10:32Z</time>
      </trkpt>
      <trkpt lat="44.93894" lon="0.99237">
        <ele>134.362</ele>
        <time>2017-03-29T18:10:52Z</time>
      </trkpt>
      <trkpt lat="44.93896" lon="0.99327">
        <ele>132.308</ele>
        <time>2017-03-29T18:11:12Z</time>
      </trkpt>
      <trkpt lat="44.93893" lon="0.99389">
        <ele>129.008</ele>
        <time>2017-03-29T18:11:32Z</time>
      </trkpt>
      <trkpt lat="44.93884" lon="0.9945">
        <ele>130.868</ele>
        <time>2017-03-29T18:11:52Z</time>
      </trkpt>
      <trkpt lat="44.9384" lon="0.99607">
        <ele>137.953</ele>
        <time>2017-03-29T18:12:12Z</time>
      </trkpt>
      <trkpt lat="44.93784" lon="0.99621">
        <ele>129.863</ele>
        <time>2017-03-29T18:12:32Z</time>
      </trkpt>
      <trkpt lat="44.93766" lon="0.99684">
        <ele>134.135</ele>
        <time>2017-03-29T18:12:52Z</time>
      </trkpt>
      <trkpt lat="44.93752" lon="0.99776">
        <ele>137.157</ele>
        <time>2017-03-29T18:13:12Z</time>
      </trkpt>
      <trkpt lat="44.93771" lon="0.99719">
        <ele>136.118</ele>
        <time>2017-03-29T18:13:32Z</time>
      </trkpt>
      <trkpt lat="44.93835" lon="0.99684">
        <ele>144.414</ele>
        <time>2017-03-29T18:13:52Z</time>
      </trkpt>
      <trkpt lat="44.93938" lon="0.99838">
        <ele>134.476</ele>
        <time>2017-03-29T18:14:12Z</time>
      </trkpt>
      <trkpt lat="44.93974" lon="0.9983">
        <ele>135.184</ele>
        <time>2017-03-29T18:14:32Z</time>
      </trkpt>
      <trkpt lat="44.94061" lon="0.99778">
        <ele>133.507</ele>
        <time>2017-03-29T18:14:52Z</time>
      </trkpt>
      <trkpt lat="44.94158" lon="0.99746">
        <ele>118.317</ele>
        <time>2017-03-29T18:15:12Z</time>
      </trkpt>
      <trkpt lat="44.94271" lon="0.99757">
        <ele>100.308</ele>
        <time>2017-03-29T18:15:32Z</time>
      </trkpt>
      <trkpt lat="44.94293" lon="0.99797">
        <ele>93.164</ele>
        <time>2017-03-29T18:15:52Z</time>
      </trkpt>
      <trkpt lat="44.9431" lon="0.99803">
        <ele>89.379</ele>
        <time>2017-03-29T18:16:12Z</time>
      </trkpt>
      <trkpt lat="44.94352" lon="0.99851">
        <ele>85.119</ele>
        <time>2017-03-29T18:16:32Z</time>
      </trkpt>
      <trkpt lat="44.94378" lon="0.99956">
        <ele>70.381</ele>
        <time>2020-03-06T15:44:47Z</time>
      </trkpt>
      <trkpt lat="44.94313" lon="1.00004">
        <ele>93.543</ele>
        <time>2020-03-06T15:45:07Z</time>
      </trkpt>
      <trkpt lat="44.94234" lon="1.00079">
        <ele>101.454</ele>
        <time>2020-03-06T15:45:27Z</time>
      </trkpt>
      <trkpt lat="44.94154" lon="1.00183">
        <ele>86.72</ele>
        <time>2020-03-06T15:45:47Z</time>
      </trkpt>
      <trkpt lat="44.94082" lon="1.00272">
        <ele>72.652</ele>
        <time>2020-03-06T15:46:07Z</time>
      </trkpt>
      <trkpt lat="44.94028" lon="1.00415">
        <ele>63.088</ele>
        <time>2020-03-06T15:46:27Z</time>
      </trkpt>
      <trkpt lat="44.93965" lon="1.00637">
        <ele>62.924</ele>
        <time>2020-03-06T15:46:47Z</time>
      </trkpt>
      <trkpt lat="44.94056" lon="1.00728">
        <ele>64.226</ele>
        <time>2017-03-29T18:20:12Z</time>
      </trkpt>
      <trkpt lat="44.93953" lon="1.0087">
        <ele>64.008</ele>
        <time>2017-03-29T18:20:32Z</time>
      </trkpt>
      <trkpt lat="44.93889" lon="1.00894">
        <ele>59.044</ele>
        <time>2017-03-29T18:20:52Z</time>
      </trkpt>
      <trkpt lat="44.93847" lon="1.00931">
        <ele>59.399</ele>
        <time>2017-03-29T18:21:12Z</time>
      </trkpt>
      <trkpt lat="44.93725" lon="1.01083">
        <ele>59.289</ele>
        <time>2017-03-29T18:21:32Z</time>
      </trkpt>
      <trkpt lat="44.93693" lon="1.01094">
        <ele>60.181</ele>
        <time>2017-03-29T18:21:52Z</time>
      </trkpt>
      <trkpt lat="44.93659" lon="1.01127">
        <ele>61.373</ele>
        <time>2020-03-06T15:49:07Z</time>
      </trkpt>
      <trkpt lat="44.93706" lon="1.01231">
        <ele>73.754</ele>
        <time>2020-03-06T15:49:27Z</time>
      </trkpt>
      <trkpt lat="44.93668" lon="1.01265">
        <ele>75.42</ele>
        <time>2020-03-06T15:49:47Z</time>
      </trkpt>
      <trkpt lat="44.93677" lon="1.01287">
        <ele>82.462</ele>
        <time>2020-03-06T15:50:07Z</time>
      </trkpt>
      <trkpt lat="44.93663" lon="1.01295">
        <ele>80.158</ele>
        <time>2020-03-06T15:50:27Z</time>
      </trkpt>
      <trkpt lat="44.93608" lon="1.01351">
        <ele>73.952</ele>
        <time>2020-03-06T15:50:47Z</time>
      </trkpt>
      <trkpt lat="44.93598" lon="1.0142">
        <ele>74.617</ele>
        <time>2020-03-06T15:51:07Z</time>
      </trkpt>
      <trkpt lat="44.93603" lon="1.01506">
        <ele>80.308</ele>
        <time>2017-03-29T18:24:32Z</time>
      </trkpt>
      <trkpt lat="44.93603" lon="1.01506">
        <ele>80.308</ele>
        <time>2017-03-29T18:24:32Z</time>
      </trkpt>
      <trkpt lat="44.93603" lon="1.01506">
        <ele>80.308</ele>
        <time>2017-03-29T18:24:32Z</time>
      </trkpt>
      <trkpt lat="44.93603" lon="1.01506">
        <ele>80.308</ele>
        <time>2017-03-29T18:24:32Z</time>
      </trkpt>
      <trkpt lat="44.93603" lon="1.01506">
        <ele>80.308</ele>
        <time>2017-03-29T18:24:32Z</time>
      </trkpt>
      <trkpt lat="44.93603" lon="1.01506">
        <ele>80.308</ele>
        <time>2017-03-29T18:24:32Z</time>
      </trkpt>
      <trkpt lat="44.93607" lon="1.01558">
        <ele>78.881</ele>
        <time>2020-03-06T15:51:47Z</time>
      </trkpt>
      <trkpt lat="44.93616" lon="1.01619">
        <ele>81.546</ele>
        <time>2020-03-06T15:52:07Z</time>
      </trkpt>
      <trkpt lat="44.9362" lon="1.01688">
        <ele>83.886</ele>
        <time>2020-03-06T13:33:57Z</time>
      </trkpt>
      <trkpt lat="44.9362" lon="1.01688">
        <ele>83.888</ele>
        <time>2020-03-06T13:33:57Z</time>
      </trkpt>
      <trkpt lat="44.93622" lon="1.01765">
        <ele>81.49</ele>
        <time>2020-03-06T13:34:17Z</time>
      </trkpt>
      <trkpt lat="44.93613" lon="1.01834">
        <ele>75.591</ele>
        <time>2015-08-04T09:13:15Z</time>
      </trkpt>
      <trkpt lat="44.93641" lon="1.01955">
        <ele>74.497</ele>
        <time>2015-08-04T09:13:35Z</time>
      </trkpt>
      <trkpt lat="44.93663" lon="1.01985">
        <ele>78.899</ele>
        <time>2015-08-04T09:13:55Z</time>
      </trkpt>
      <trkpt lat="44.93718" lon="1.02103">
        <ele>80.246</ele>
        <time>2015-08-04T09:14:15Z</time>
      </trkpt>
      <trkpt lat="44.93689" lon="1.02087">
        <ele>75.688</ele>
        <time>2015-08-04T09:14:35Z</time>
      </trkpt>
      <trkpt lat="44.9363" lon="1.02102">
        <ele>71.916</ele>
        <time>2015-08-04T09:14:55Z</time>
      </trkpt>
      <trkpt lat="44.93607" lon="1.02137">
        <ele>73.108</ele>
        <time>2015-08-04T09:15:15Z</time>
      </trkpt>
      <trkpt lat="44.93704" lon="1.02637">
        <ele>81.34</ele>
        <time>2015-08-04T09:15:35Z</time>
      </trkpt>
      <trkpt lat="44.93746" lon="1.02755">
        <ele>84.995</ele>
        <time>2015-08-04T09:15:55Z</time>
      </trkpt>
      <trkpt lat="44.93798" lon="1.02836">
        <ele>86.795</ele>
        <time>2015-08-04T09:16:15Z</time>
      </trkpt>
      <trkpt lat="44.93867" lon="1.02905">
        <ele>89.247</ele>
        <time>2015-08-04T09:16:35Z</time>
      </trkpt>
      <trkpt lat="44.93982" lon="1.02968">
        <ele>91.939</ele>
        <time>2015-08-04T09:16:55Z</time>
      </trkpt>
      <trkpt lat="44.94019" lon="1.03003">
        <ele>91.46</ele>
        <time>2015-08-04T09:17:15Z</time>
      </trkpt>
      <trkpt lat="44.94033" lon="1.03097">
        <ele>105.266</ele>
        <time>2020-11-25T09:46:40Z</time>
      </trkpt>
      <trkpt lat="44.9402" lon="1.03186">
        <ele>107.948</ele>
        <time>2020-11-25T09:47:00Z</time>
      </trkpt>
      <trkpt lat="44.9397" lon="1.03333">
        <ele>125.282</ele>
        <time>2015-08-04T09:19:15Z</time>
      </trkpt>
      <trkpt lat="44.93932" lon="1.03385">
        <ele>131.343</ele>
        <time>2015-08-04T09:19:35Z</time>
      </trkpt>
      <trkpt lat="44.93888" lon="1.03425">
        <ele>136.317</ele>
        <time>2015-08-04T09:19:55Z</time>
      </trkpt>
      <trkpt lat="44.93765" lon="1.0347">
        <ele>143.408</ele>
        <time>2015-08-04T09:20:15Z</time>
      </trkpt>
      <trkpt lat="44.9372" lon="1.03474">
        <ele>145.494</ele>
        <time>2015-08-04T09:20:35Z</time>
      </trkpt>
      <trkpt lat="44.93662" lon="1.03497">
        <ele>152.639</ele>
        <time>2015-08-04T09:20:55Z</time>
      </trkpt>
      <trkpt lat="44.93625" lon="1.03503">
        <ele>157.499</ele>
        <time>2015-08-04T09:21:15Z</time>
      </trkpt>
      <trkpt lat="44.93592" lon="1.0352">
        <ele>160.011</ele>
        <time>2015-08-04T09:21:35Z</time>
      </trkpt>
      <trkpt lat="44.93483" lon="1.03545">
        <ele>167.563</ele>
        <time>2015-08-04T09:21:55Z</time>
      </trkpt>
      <trkpt lat="44.93382" lon="1.03632">
        <ele>178.054</ele>
        <time>2015-08-04T09:22:15Z</time>
      </trkpt>
      <trkpt lat="44.9334" lon="1.03724">
        <ele>185.93</ele>
        <time>2015-08-04T09:22:35Z</time>
      </trkpt>
      <trkpt lat="44.93413" lon="1.03764">
        <ele>194.182</ele>
        <time>2015-08-04T09:22:55Z</time>
      </trkpt>
      <trkpt lat="44.93423" lon="1.03786">
        <ele>197.962</ele>
        <time>2015-08-04T09:23:15Z</time>
      </trkpt>
      <trkpt lat="44.93396" lon="1.03926">
        <ele>205.683</ele>
        <time>2015-08-04T09:23:35Z</time>
      </trkpt>
      <trkpt lat="44.93377" lon="1.03993">
        <ele>211.111</ele>
        <time>2015-08-04T09:23:55Z</time>
      </trkpt>
      <trkpt lat="44.93377" lon="1.041">
        <ele>203.308</ele>
        <time>2015-08-04T09:24:15Z</time>
      </trkpt>
      <trkpt lat="44.93345" lon="1.04122">
        <ele>202.252</ele>
        <time>2015-08-04T09:24:35Z</time>
      </trkpt>
      <trkpt lat="44.9333" lon="1.042">
        <ele>193.587</ele>
        <time>2015-08-04T09:24:55Z</time>
      </trkpt>
      <trkpt lat="44.93328" lon="1.04361">
        <ele>190.627</ele>
        <time>2015-08-04T09:25:15Z</time>
      </trkpt>
      <trkpt lat="44.93337" lon="1.04412">
        <ele>193.649</ele>
        <time>2015-08-04T09:25:35Z</time>
      </trkpt>
      <trkpt lat="44.93376" lon="1.04481">
        <ele>194.751</ele>
        <time>2015-08-04T09:25:55Z</time>
      </trkpt>
      <trkpt lat="44.93384" lon="1.04537">
        <ele>200.522</ele>
        <time>2015-08-04T09:26:15Z</time>
      </trkpt>
      <trkpt lat="44.93367" lon="1.04629">
        <ele>206.168</ele>
        <time>2015-08-04T09:26:35Z</time>
      </trkpt>
      <trkpt lat="44.93354" lon="1.04753">
        <ele>202.26</ele>
        <time>2015-08-04T09:26:55Z</time>
      </trkpt>
      <trkpt lat="44.93357" lon="1.04826">
        <ele>202.566</ele>
        <time>2015-08-04T09:27:15Z</time>
      </trkpt>
      <trkpt lat="44.93287" lon="1.04873">
        <ele>202.529</ele>
        <time>2015-08-04T09:27:35Z</time>
      </trkpt>
      <trkpt lat="44.93233" lon="1.0495">
        <ele>205.521</ele>
        <time>2015-08-04T09:27:55Z</time>
      </trkpt>
      <trkpt lat="44.93211" lon="1.05011">
        <ele>214.408</ele>
        <time>2015-08-04T09:28:15Z</time>
      </trkpt>
      <trkpt lat="44.93152" lon="1.05019">
        <ele>220.482</ele>
        <time>2015-08-04T09:28:35Z</time>
      </trkpt>
      <trkpt lat="44.93058" lon="1.05098">
        <ele>226.757</ele>
        <time>2015-08-04T09:28:55Z</time>
      </trkpt>
      <trkpt lat="44.92981" lon="1.05194">
        <ele>225.257</ele>
        <time>2015-08-04T09:29:15Z</time>
      </trkpt>
      <trkpt lat="44.92951" lon="1.05259">
        <ele>222.759</ele>
        <time>2015-08-04T09:29:35Z</time>
      </trkpt>
      <trkpt lat="44.92945" lon="1.05295">
        <ele>221.171</ele>
        <time>2015-08-04T09:29:55Z</time>
      </trkpt>
      <trkpt lat="44.92946" lon="1.05374">
        <ele>215.462</ele>
        <time>2015-08-04T09:30:15Z</time>
      </trkpt>
      <trkpt lat="44.92938" lon="1.05422">
        <ele>209.998</ele>
        <time>2015-08-04T09:30:35Z</time>
      </trkpt>
      <trkpt lat="44.92939" lon="1.05511">
        <ele>211.63</ele>
        <time>2015-08-04T09:30:55Z</time>
      </trkpt>
      <trkpt lat="44.92909" lon="1.05573">
        <ele>213.948</ele>
        <time>2015-08-04T09:31:15Z</time>
      </trkpt>
      <trkpt lat="44.92917" lon="1.05596">
        <ele>214.561</ele>
        <time>2015-08-04T09:31:35Z</time>
      </trkpt>
      <trkpt lat="44.92912" lon="1.05669">
        <ele>213.217</ele>
        <time>2015-08-04T09:31:55Z</time>
      </trkpt>
      <trkpt lat="44.92918" lon="1.05699">
        <ele>217.808</ele>
        <time>2015-08-04T09:32:15Z</time>
      </trkpt>
      <trkpt lat="44.93026" lon="1.05714">
        <ele>200.83</ele>
        <time>2015-08-04T09:32:35Z</time>
      </trkpt>
      <trkpt lat="44.93045" lon="1.05691">
        <ele>197.045</ele>
        <time>2015-08-04T09:32:55Z</time>
      </trkpt>
      <trkpt lat="44.93161" lon="1.05715">
        <ele>180.965</ele>
        <time>2015-08-04T09:33:15Z</time>
      </trkpt>
      <trkpt lat="44.93205" lon="1.05749">
        <ele>178.647</ele>
        <time>2015-08-04T09:33:35Z</time>
      </trkpt>
      <trkpt lat="44.93276" lon="1.05776">
        <ele>166.559</ele>
        <time>2015-08-04T09:33:55Z</time>
      </trkpt>
      <trkpt lat="44.93303" lon="1.058">
        <ele>161.64</ele>
        <time>2015-08-04T09:34:15Z</time>
      </trkpt>
      <trkpt lat="44.93345" lon="1.05846">
        <ele>152.116</ele>
        <time>2015-08-04T09:34:35Z</time>
      </trkpt>
      <trkpt lat="44.93422" lon="1.05856">
        <ele>148.418</ele>
        <time>2015-08-04T09:34:55Z</time>
      </trkpt>
      <trkpt lat="44.93463" lon="1.05874">
        <ele>147.514</ele>
        <time>2015-08-04T09:35:15Z</time>
      </trkpt>
      <trkpt lat="44.93507" lon="1.05901">
        <ele>145.754</ele>
        <time>2015-08-04T09:35:35Z</time>
      </trkpt>
      <trkpt lat="44.93516" lon="1.05949">
        <ele>140.209</ele>
        <time>2015-08-04T09:35:55Z</time>
      </trkpt>
      <trkpt lat="44.9352" lon="1.06043">
        <ele>134.008</ele>
        <time>2015-08-04T09:36:15Z</time>
      </trkpt>
      <trkpt lat="44.93534" lon="1.06122">
        <ele>129.427</ele>
        <time>2015-08-04T09:36:35Z</time>
      </trkpt>
      <trkpt lat="44.93557" lon="1.06193">
        <ele>123.192</ele>
        <time>2015-08-04T09:36:55Z</time>
      </trkpt>
      <trkpt lat="44.93582" lon="1.06211">
        <ele>121.232</ele>
        <time>2015-08-04T09:37:15Z</time>
      </trkpt>
      <trkpt lat="44.93599" lon="1.06262">
        <ele>116.514</ele>
        <time>2015-08-04T09:37:35Z</time>
      </trkpt>
      <trkpt lat="44.9362" lon="1.06284">
        <ele>114.526</ele>
        <time>2015-08-04T09:37:55Z</time>
      </trkpt>
      <trkpt lat="44.93659" lon="1.0631">
        <ele>115.447</ele>
        <time>2015-08-04T09:38:15Z</time>
      </trkpt>
      <trkpt lat="44.93704" lon="1.06357">
        <ele>109.213</ele>
        <time>2015-08-04T09:38:35Z</time>
      </trkpt>
      <trkpt lat="44.93772" lon="1.06334">
        <ele>110.275</ele>
        <time>2015-08-04T09:38:55Z</time>
      </trkpt>
      <trkpt lat="44.93799" lon="1.06316">
        <ele>112.184</ele>
        <time>2015-08-04T09:39:15Z</time>
      </trkpt>
      <trkpt lat="44.93843" lon="1.0629">
        <ele>107.207</ele>
        <time>2015-08-04T09:39:35Z</time>
      </trkpt>
      <trkpt lat="44.93845" lon="1.06298">
        <ele>105.117</ele>
        <time>2015-08-04T09:39:55Z</time>
      </trkpt>
      <trkpt lat="44.93822" lon="1.06316">
        <ele>106.508</ele>
        <time>2015-08-04T09:40:15Z</time>
      </trkpt>
      <trkpt lat="44.93808" lon="1.06337">
        <ele>103.914</ele>
        <time>2015-08-04T09:40:35Z</time>
      </trkpt>
      <trkpt lat="44.93894" lon="1.06537">
        <ele>105.939</ele>
        <time>2015-08-04T09:40:55Z</time>
      </trkpt>
      <trkpt lat="44.93614" lon="1.06629">
        <ele>100.319</ele>
        <time>2015-08-04T09:41:15Z</time>
      </trkpt>
      <trkpt lat="44.93536" lon="1.06713">
        <ele>101.991</ele>
        <time>2020-03-06T14:02:57Z</time>
      </trkpt>
      <trkpt lat="44.93534" lon="1.06741">
        <ele>103.393</ele>
        <time>2020-03-06T14:03:17Z</time>
      </trkpt>
      <trkpt lat="44.93569" lon="1.06877">
        <ele>116.564</ele>
        <time>2020-03-06T14:03:37Z</time>
      </trkpt>
      <trkpt lat="44.93594" lon="1.06929">
        <ele>124.12</ele>
        <time>2015-08-04T09:42:35Z</time>
      </trkpt>
      <trkpt lat="44.93606" lon="1.07">
        <ele>130.452</ele>
        <time>2015-08-04T09:42:55Z</time>
      </trkpt>
      <trkpt lat="44.93605" lon="1.07055">
        <ele>135.279</ele>
        <time>2015-08-04T09:43:15Z</time>
      </trkpt>
      <trkpt lat="44.93617" lon="1.07056">
        <ele>136.405</ele>
        <time>2015-08-04T09:43:35Z</time>
      </trkpt>
      <trkpt lat="44.93647" lon="1.06884">
        <ele>140.025</ele>
        <time>2015-08-04T09:43:55Z</time>
      </trkpt>
      <trkpt lat="44.93705" lon="1.06846">
        <ele>151.208</ele>
        <time>2015-08-04T09:44:15Z</time>
      </trkpt>
      <trkpt lat="44.93806" lon="1.06835">
        <ele>164.373</ele>
        <time>2015-08-04T09:44:35Z</time>
      </trkpt>
      <trkpt lat="44.93789" lon="1.06884">
        <ele>167.838</ele>
        <time>2015-08-04T09:44:55Z</time>
      </trkpt>
      <trkpt lat="44.93851" lon="1.06964">
        <ele>182.648</ele>
        <time>2015-08-04T09:45:15Z</time>
      </trkpt>
      <trkpt lat="44.93868" lon="1.06995">
        <ele>184.57</ele>
        <time>2015-08-04T09:45:35Z</time>
      </trkpt>
      <trkpt lat="44.93893" lon="1.07004">
        <ele>186.222</ele>
        <time>2015-08-04T09:45:55Z</time>
      </trkpt>
      <trkpt lat="44.939" lon="1.07077">
        <ele>188.623</ele>
        <time>2015-08-04T09:46:15Z</time>
      </trkpt>
      <trkpt lat="44.93938" lon="1.07133">
        <ele>185.959</ele>
        <time>2015-08-04T09:46:35Z</time>
      </trkpt>
      <trkpt lat="44.93969" lon="1.07199">
        <ele>195.511</ele>
        <time>2015-08-04T09:46:55Z</time>
      </trkpt>
      <trkpt lat="44.94041" lon="1.07237">
        <ele>196.988</ele>
        <time>2015-08-04T09:47:15Z</time>
      </trkpt>
      <trkpt lat="44.93995" lon="1.07347">
        <ele>208.224</ele>
        <time>2015-08-04T09:47:35Z</time>
      </trkpt>
      <trkpt lat="44.93994" lon="1.07383">
        <ele>210.426</ele>
        <time>2015-08-04T09:47:55Z</time>
      </trkpt>
      <trkpt lat="44.94022" lon="1.07419">
        <ele>211.908</ele>
        <time>2015-08-04T09:48:15Z</time>
      </trkpt>
      <trkpt lat="44.94006" lon="1.07494">
        <ele>210.634</ele>
        <time>2015-08-04T09:48:35Z</time>
      </trkpt>
      <trkpt lat="44.93973" lon="1.07548">
        <ele>213.759</ele>
        <time>2015-08-04T09:48:55Z</time>
      </trkpt>
      <trkpt lat="44.9399" lon="1.07594">
        <ele>213.389</ele>
        <time>2015-08-04T09:49:15Z</time>
      </trkpt>
      <trkpt lat="44.94016" lon="1.07786">
        <ele>214.211</ele>
        <time>2015-08-04T09:49:35Z</time>
      </trkpt>
      <trkpt lat="44.94017" lon="1.07864">
        <ele>212.173</ele>
        <time>2015-08-04T09:49:55Z</time>
      </trkpt>
      <trkpt lat="44.94004" lon="1.07903">
        <ele>212.044</ele>
        <time>2015-08-04T09:50:15Z</time>
      </trkpt>
      <trkpt lat="44.93948" lon="1.07953">
        <ele>208.15</ele>
        <time>2015-08-04T09:50:35Z</time>
      </trkpt>
      <trkpt lat="44.93929" lon="1.07988">
        <ele>206.382</ele>
        <time>2015-08-04T09:50:55Z</time>
      </trkpt>
      <trkpt lat="44.93901" lon="1.08066">
        <ele>205.336</ele>
        <time>2015-08-04T09:51:15Z</time>
      </trkpt>
      <trkpt lat="44.9388" lon="1.08098">
        <ele>204.517</ele>
        <time>2015-08-04T09:51:35Z</time>
      </trkpt>
      <trkpt lat="44.93908" lon="1.08155">
        <ele>207.718</ele>
        <time>2015-08-04T09:51:55Z</time>
      </trkpt>
      <trkpt lat="44.9387" lon="1.08352">
        <ele>211.008</ele>
        <time>2015-08-04T09:52:15Z</time>
      </trkpt>
      <trkpt lat="44.93809" lon="1.08467">
        <ele>215.629</ele>
        <time>2015-08-04T09:52:35Z</time>
      </trkpt>
      <trkpt lat="44.93654" lon="1.08572">
        <ele>211.164</ele>
        <time>2015-08-04T09:52:55Z</time>
      </trkpt>
    </trkseg>
  </trk>
</gpx>